El Dorado, Kansas
Current Conditions -  °F | °C
As of 11:55 AM on Monday 24 Nov 2014 (Local Time) from KEQA Reporting Station
Clear Clear  
Wind Chill: 50°   Ceiling: Unl
Heat Index: 50°   Visibility: 10mi
Dew Point: 25°   Wind: 21mph
Humidity: 37%   Direction: 310°NW
Pressure: 29.87"   Gusts: 30mph
Location:  37.82°N, 96.85°W
Report Text: KEQA 241755Z AUTO 31018G26KT 10SM CLR 10/M04 A2987 RMK AO2
Loading
Personal Weather Stations






























Interactive Weather Map New forecast layout! Learn more

10-Day Weather Forecast

Advertisements
Track Severe Weather on mobile